Time;durP1;ratioP1;P1;durP2;ratioP2;P2;SDS_P1;SDS_P2;PMS_P1;PMS_P2;Temp;Humidity;BMP_temperature;BMP_pressure;BME280_temperature;BME280_humidity;BME280_pressure;Samples;Min_cycle;Max_cycle;Signal;HPM_P1;HPM_P2
2023/11/23 00:00:11;;;;;;;;;;;;;;;0.17;90.66;101269.63;5055064;28;19997;-56
2023/11/23 00:02:39;;;;;;;;;;;;;;;0.15;90.46;101262.75;5051303;28;20027;-58
2023/11/23 00:05:07;;;;;;;;;;;;;;;0.24;90.38;101260.09;5053167;28;19929;-52
2023/11/23 00:07:34;;;;;;;;;;;;;;;0.27;89.28;101243.66;5050088;28;19998;-56
2023/11/23 00:10:01;;;;;;;;;;;;;;;0.24;89.66;101239.38;5049176;28;19931;-52
2023/11/23 00:12:30;;;;;;;;;;;;;;;0.28;89.08;101216.91;5049598;28;19979;-53
2023/11/23 00:14:59;;;;;;;;;;;;;;;0.32;89.45;101195.31;5049513;28;20011;-53
2023/11/23 00:17:27;;;;;;;;;;;;;;;0.28;89.06;101197.06;5045254;28;20425;-58
2023/11/23 00:19:54;;;;;;;;;;;;;;;0.34;88.53;101180.59;5043008;28;19960;-57
2023/11/23 00:22:21;;;;;;;;;;;;;;;0.38;88.08;101164.19;5051776;28;19956;-57
2023/11/23 00:24:48;;;;;;;;;;;;;;;0.42;88.32;101165.88;5053323;28;20370;-54
2023/11/23 00:27:15;;;;;;;;;;;;;;;0.43;87.64;101147.72;5050295;28;19925;-50
2023/11/23 00:29:44;;;;;;;;;;;;;;;0.43;87.35;101139.94;5055748;28;20049;-55
2023/11/23 00:32:12;;;;;;;;;;;;;;;0.48;87.77;101121.78;5046381;28;20012;-55
2023/11/23 00:34:39;;;;;;;;;;;;;;;0.53;87.73;101122.59;5042848;28;19925;-51
2023/11/23 00:37:09;;;;;;;;;;;;;;;0.58;87.75;101135.50;5052029;28;19946;-51
2023/11/23 00:39:36;;;;;;;;;;;;;;;0.62;87.91;101112.13;5042955;28;20391;-55
2023/11/23 00:42:03;;;;;;;;;;;;;;;0.62;87.25;101121.63;5045584;28;20472;-54
2023/11/23 00:44:31;;;;;;;;;;;;;;;0.53;88.15;101116.53;5040563;28;19971;-52
2023/11/23 00:46:59;;;;;;;;;;;;;;;0.55;88.56;101105.31;5049629;28;19929;-56
2023/11/23 00:49:27;;;;;;;;;;;;;;;0.61;88.31;101099.19;5044710;28;19929;-57
2023/11/23 00:51:54;;;;;;;;;;;;;;;0.66;88.35;101089.63;5052250;28;20318;-56
2023/11/23 00:54:21;;;;;;;;;;;;;;;0.71;88.28;101093.03;5053828;28;19963;-57
2023/11/23 00:56:48;;;;;;;;;;;;;;;0.73;88.55;101097.34;5051232;28;20514;-56
2023/11/23 00:59:15;;;;;;;;;;;;;;;0.72;88.96;101087.84;5052945;28;20391;-56
2023/11/23 01:01:44;;;;;;;;;;;;;;;0.69;89.01;101069.75;5048906;28;19929;-54
2023/11/23 01:04:13;;;;;;;;;;;;;;;0.73;89.15;101057.63;5050836;28;20012;-54
2023/11/23 01:06:41;;;;;;;;;;;;;;;0.71;88.72;101070.56;5051394;28;20433;-58
2023/11/23 01:09:09;;;;;;;;;;;;;;;0.76;88.56;101063.59;5054035;28;20584;-55
2023/11/23 01:11:36;;;;;;;;;;;;;;;0.85;88.63;101075.59;5044986;28;19966;-55
2023/11/23 01:14:03;;;;;;;;;;;;;;;0.88;88.32;101078.16;5048979;28;20023;-54
2023/11/23 01:16:30;;;;;;;;;;;;;;;0.93;88.01;101071.19;5029416;28;20403;-51
2023/11/23 01:18:57;;;;;;;;;;;;;;;0.92;87.55;101059.09;5027431;28;20027;-55
2023/11/23 01:21:24;;;;;;;;;;;;;;;0.95;87.21;101053.88;5041967;28;19968;-54
2023/11/23 01:23:51;;;;;;;;;;;;;;;1.05;87.29;101038.22;5046223;28;20383;-56
2023/11/23 01:26:19;;;;;;;;;;;;;;;1.05;87.21;101057.22;5045487;28;19979;-56
2023/11/23 01:28:46;;;;;;;;;;;;;;;1.11;87.04;101030.34;5055768;28;20032;-58
2023/11/23 01:31:13;;;;;;;;;;;;;;;1.18;86.26;101032.00;5044053;28;19964;-55
2023/11/23 01:33:40;;;;;;;;;;;;;;;1.21;86.41;101024.16;5040766;28;19940;-57
2023/11/23 01:36:08;;;;;;;;;;;;;;;1.27;86.21;101004.19;5045816;28;19964;-56
2023/11/23 01:38:35;;;;;;;;;;;;;;;1.25;86.18;101007.66;5042701;28;19925;-52
2023/11/23 01:41:03;;;;;;;;;;;;;;;1.36;86.04;101005.78;5044685;28;20371;-57
2023/11/23 01:43:31;;;;;;;;;;;;;;;1.43;85.88;101024.69;5031988;28;19925;-57
2023/11/23 01:45:58;;;;;;;;;;;;;;;1.43;85.66;101020.34;5048517;28;19947;-57
2023/11/23 01:48:26;;;;;;;;;;;;;;;1.48;85.63;100999.53;5049837;28;19940;-58
2023/11/23 01:50:53;;;;;;;;;;;;;;;1.54;85.44;100996.88;5050775;28;20576;-57
2023/11/23 01:53:20;;;;;;;;;;;;;;;1.54;85.40;100996.00;5041860;28;20024;-53
2023/11/23 01:55:47;;;;;;;;;;;;;;;1.59;85.54;100994.19;5046183;28;19925;-56
2023/11/23 01:58:14;;;;;;;;;;;;;;;1.62;85.17;100994.13;5044666;28;20032;-57
2023/11/23 02:00:41;;;;;;;;;;;;;;;1.67;85.20;100988.00;5054964;28;19935;-58
2023/11/23 02:03:08;;;;;;;;;;;;;;;1.69;85.24;100978.44;5053172;28;20013;-57
2023/11/23 02:05:35;;;;;;;;;;;;;;;1.71;85.45;100986.19;5041432;28;20393;-58
2023/11/23 02:08:04;;;;;;;;;;;;;;;1.71;85.34;100975.81;5053387;28;20329;-56
2023/11/23 02:10:31;;;;;;;;;;;;;;;1.76;85.30;100966.22;5056899;28;20032;-55
2023/11/23 02:12:58;;;;;;;;;;;;;;;1.81;85.37;100963.56;5050196;28;20291;-57
2023/11/23 02:15:25;;;;;;;;;;;;;;;1.76;85.24;100961.03;5054932;28;20015;-57
2023/11/23 02:18:00;;;;;;;;;;;;;;;1.81;85.40;100968.75;5059258;28;19924;-56
2023/11/23 02:20:27;;;;;;;;;;;;;;;1.88;85.07;100960.81;5036409;28;20441;-55
2023/11/23 02:22:55;;;;;;;;;;;;;;;1.88;85.33;100953.00;5048456;28;19924;-56
2023/11/23 02:25:25;;;;;;;;;;;;;;;1.90;85.89;100940.88;5055942;28;20010;-57
2023/11/23 02:27:52;;;;;;;;;;;;;;;1.95;85.37;100946.84;5053224;28;19925;-57
2023/11/23 02:30:19;;;;;;;;;;;;;;;2.00;85.78;100939.81;5060268;28;19928;-56
2023/11/23 02:32:55;;;;;;;;;;;;;;;2.02;85.34;100937.19;5047968;28;19931;-56
2023/11/23 02:35:23;;;;;;;;;;;;;;;2.00;85.99;100945.00;5050616;28;20024;-54
2023/11/23 02:37:50;;;;;;;;;;;;;;;2.08;85.49;100942.28;5056372;28;19932;-53
2023/11/23 02:40:17;;;;;;;;;;;;;;;2.05;85.74;100936.28;5052090;28;20011;-55
2023/11/23 02:42:44;;;;;;;;;;;;;;;2.10;86.04;100937.03;5053329;28;19933;-53
2023/11/23 02:45:12;;;;;;;;;;;;;;;2.15;85.80;100946.44;5048925;28;19925;-57
2023/11/23 02:47:40;;;;;;;;;;;;;;;2.14;85.92;100916.19;5051206;28;19956;-57
2023/11/23 02:50:09;;;;;;;;;;;;;;;2.17;85.73;100915.28;5059684;28;20466;-54
2023/11/23 02:52:36;;;;;;;;;;;;;;;2.24;86.35;100916.84;5061335;28;19928;-56
2023/11/23 02:55:03;;;;;;;;;;;;;;;2.32;86.41;100912.34;5053611;28;19924;-58
2023/11/23 02:57:30;;;;;;;;;;;;;;;2.33;86.15;100901.06;5047094;28;20487;-56
2023/11/23 02:59:57;;;;;;;;;;;;;;;2.29;85.84;100902.03;5049469;28;19952;-52
2023/11/23 03:02:24;;;;;;;;;;;;;;;2.38;86.07;100898.38;5053551;28;19960;-53
2023/11/23 03:04:53;;;;;;;;;;;;;;;2.39;85.71;100900.13;5060182;28;20399;-55
2023/11/23 03:07:21;;;;;;;;;;;;;;;2.45;86.29;100902.56;5053746;28;19925;-54
2023/11/23 03:09:48;;;;;;;;;;;;;;;2.50;86.48;100893.78;5053724;28;19948;-57
2023/11/23 03:12:16;;;;;;;;;;;;;;;2.54;86.88;100889.38;5047891;28;19924;-57
2023/11/23 03:14:43;;;;;;;;;;;;;;;2.59;87.20;100882.34;5051569;28;19956;-56
2023/11/23 03:17:10;;;;;;;;;;;;;;;2.63;87.17;100889.19;5056675;28;19925;-57
2023/11/23 03:19:38;;;;;;;;;;;;;;;2.69;86.75;100878.63;5056552;28;20000;-52
2023/11/23 03:22:05;;;;;;;;;;;;;;;2.73;87.14;100885.47;5061685;28;19936;-57
2023/11/23 03:24:32;;;;;;;;;;;;;;;2.79;87.90;100876.69;5047951;28;19948;-58
2023/11/23 03:27:00;;;;;;;;;;;;;;;2.84;87.63;100868.78;5041217;28;19933;-57
2023/11/23 03:29:27;;;;;;;;;;;;;;;2.91;87.25;100873.81;5040827;28;20369;-57
2023/11/23 03:31:54;;;;;;;;;;;;;;;2.93;87.43;100869.44;5034773;28;20097;-59
2023/11/23 03:34:21;;;;;;;;;;;;;;;2.98;87.30;100864.13;5043257;28;19925;-57
2023/11/23 03:36:48;;;;;;;;;;;;;;;3.03;87.21;100873.53;5050867;28;20015;-54
2023/11/23 03:39:15;;;;;;;;;;;;;;;3.07;87.85;100860.47;5046217;28;20020;-58
2023/11/23 03:41:42;;;;;;;;;;;;;;;3.09;87.59;100859.50;5044916;28;20008;-55
2023/11/23 03:44:09;;;;;;;;;;;;;;;3.18;88.05;100846.28;5041742;28;19968;-57
2023/11/23 03:46:36;;;;;;;;;;;;;;;3.10;88.15;100849.97;5041585;28;20015;-55
2023/11/23 03:49:04;;;;;;;;;;;;;;;3.18;89.09;100853.22;5041852;28;20383;-57
2023/11/23 03:51:31;;;;;;;;;;;;;;;3.21;88.75;100834.94;5038705;28;20016;-57
2023/11/23 03:53:58;;;;;;;;;;;;;;;3.32;91.71;100835.53;5045238;28;20014;-57
2023/11/23 03:56:26;;;;;;;;;;;;;;;3.37;90.96;100828.44;5050983;28;19933;-55
2023/11/23 03:58:52;;;;;;;;;;;;;;;3.39;90.07;100820.63;5047620;28;20321;-56
2023/11/23 04:01:21;;;;;;;;;;;;;;;3.39;90.50;100821.47;5038700;28;19971;-57
2023/11/23 04:03:48;;;;;;;;;;;;;;;3.44;90.61;100814.38;5048518;28;20347;-57
2023/11/23 04:06:20;;;;;;;;;;;;;;;3.53;90.84;100818.50;5045160;28;19924;-56
2023/11/23 04:08:48;;;;;;;;;;;;;;;3.53;91.27;100800.28;5043842;28;19932;-58
2023/11/23 04:11:15;;;;;;;;;;;;;;;3.60;91.43;100806.16;5045869;28;20502;-56
2023/11/23 04:13:42;;;;;;;;;;;;;;;3.62;92.03;100805.22;5039916;28;20013;-54
2023/11/23 04:16:09;;;;;;;;;;;;;;;3.69;92.82;100806.78;5048443;28;20015;-53
2023/11/23 04:18:36;;;;;;;;;;;;;;;3.71;92.80;100806.72;5044438;28;20114;-55
2023/11/23 04:21:04;;;;;;;;;;;;;;;3.77;93.37;100804.78;5049786;28;20008;-56
2023/11/23 04:23:31;;;;;;;;;;;;;;;3.80;93.46;100801.25;5049793;28;20011;-54
2023/11/23 04:25:58;;;;;;;;;;;;;;;3.81;93.31;100810.78;5042883;28;20031;-52
2023/11/23 04:28:25;;;;;;;;;;;;;;;3.91;93.71;100796.59;5044016;28;20020;-53
2023/11/23 04:30:53;;;;;;;;;;;;;;;3.91;93.71;100796.59;5046204;28;20015;-53
2023/11/23 04:33:22;;;;;;;;;;;;;;;3.98;95.41;100836.34;5046785;28;19925;-54
2023/11/23 04:35:50;;;;;;;;;;;;;;;4.05;95.62;100778.84;5036537;28;19928;-53
2023/11/23 04:38:17;;;;;;;;;;;;;;;4.04;95.17;100779.72;5038100;28;20012;-58
2023/11/23 04:40:44;;;;;;;;;;;;;;;4.13;95.79;100786.41;5043791;28;20622;-57
2023/11/23 04:43:12;;;;;;;;;;;;;;;4.17;94.97;100767.19;5055395;28;20011;-53
2023/11/23 04:45:39;;;;;;;;;;;;;;;4.20;95.99;100771.44;5042056;28;19998;-57
2023/11/23 04:48:07;;;;;;;;;;;;;;;4.19;96.22;100761.94;5050592;28;20020;-57
2023/11/23 04:50:36;;;;;;;;;;;;;;;4.25;96.28;100749.56;5040480;28;19975;-54
2023/11/23 04:53:04;;;;;;;;;;;;;;;4.27;97.82;100767.75;5047542;28;20028;-57
2023/11/23 04:55:31;;;;;;;;;;;;;;;4.35;97.72;100757.09;5044361;28;19935;-56
2023/11/23 04:57:58;;;;;;;;;;;;;;;4.38;97.73;100760.47;5048547;28;19943;-54
2023/11/23 05:00:26;;;;;;;;;;;;;;;4.34;98.50;100760.59;5044859;28;19999;-53
2023/11/23 05:02:53;;;;;;;;;;;;;;;4.34;98.52;100758.84;5047660;28;19925;-55
2023/11/23 05:05:20;;;;;;;;;;;;;;;4.36;99.15;100751.81;5035458;28;19947;-58
2023/11/23 05:07:47;;;;;;;;;;;;;;;4.39;99.43;100750.88;5044896;28;20015;-56
2023/11/23 05:10:15;;;;;;;;;;;;;;;4.43;100.00;100745.53;5063721;28;20056;-55
2023/11/23 05:12:42;;;;;;;;;;;;;;;4.46;100.00;100748.03;5047280;28;19960;-58
2023/11/23 05:15:09;;;;;;;;;;;;;;;4.52;100.00;100749.59;5039835;28;20115;-56
2023/11/23 05:17:36;;;;;;;;;;;;;;;4.53;100.00;100772.16;5047855;28;20023;-53
2023/11/23 05:20:03;;;;;;;;;;;;;;;4.56;100.00;100748.59;5048296;28;19958;-56
2023/11/23 05:22:30;;;;;;;;;;;;;;;4.64;100.00;100753.53;5051070;28;19928;-53
2023/11/23 05:24:57;;;;;;;;;;;;;;;4.62;100.00;100744.94;5053525;28;19924;-55
2023/11/23 05:27:24;;;;;;;;;;;;;;;4.62;100.00;100747.53;5044844;28;20031;-56
2023/11/23 05:29:51;;;;;;;;;;;;;;;4.66;100.00;100746.53;5046592;28;19952;-56
2023/11/23 05:32:18;;;;;;;;;;;;;;;4.75;100.00;100746.25;5047720;28;20017;-54
2023/11/23 05:34:45;;;;;;;;;;;;;;;4.75;100.00;100752.31;5051825;28;19959;-57
2023/11/23 05:37:12;;;;;;;;;;;;;;;4.81;100.00;100752.09;5045364;28;19968;-55
2023/11/23 05:39:39;;;;;;;;;;;;;;;4.78;100.00;100767.88;5043112;28;20016;-53
2023/11/23 05:42:10;;;;;;;;;;;;;;;4.85;100.00;100750.25;5042545;28;20022;-58
2023/11/23 05:44:38;;;;;;;;;;;;;;;4.91;100.00;100738.75;5050083;28;19925;-54
2023/11/23 05:47:05;;;;;;;;;;;;;;;4.86;100.00;100740.66;5051634;28;20001;-58
2023/11/23 05:49:33;;;;;;;;;;;;;;;4.95;100.00;100732.53;5054575;28;20023;-58
2023/11/23 05:52:00;;;;;;;;;;;;;;;4.99;100.00;100718.47;5052592;28;20401;-55
2023/11/23 05:54:27;;;;;;;;;;;;;;;5.02;100.00;100724.44;5049792;28;20023;-57
2023/11/23 05:56:54;;;;;;;;;;;;;;;5.07;100.00;100738.19;5043566;28;20012;-57
2023/11/23 05:59:21;;;;;;;;;;;;;;;5.17;100.00;100702.16;5043852;28;19929;-56
2023/11/23 06:01:48;;;;;;;;;;;;;;;5.21;100.00;100708.16;5041115;28;20015;-55
2023/11/23 06:04:16;;;;;;;;;;;;;;;5.29;100.00;100742.66;5046680;28;19982;-56
2023/11/23 06:06:43;;;;;;;;;;;;;;;5.35;100.00;100687.59;5038527;28;20095;-55
2023/11/23 06:09:10;;;;;;;;;;;;;;;5.34;100.00;100701.59;5034507;28;19936;-57
2023/11/23 06:11:37;;;;;;;;;;;;;;;5.43;100.00;100695.19;5032373;28;20048;-57
2023/11/23 06:14:04;;;;;;;;;;;;;;;5.41;100.00;100684.81;5048429;28;20012;-56
2023/11/23 06:16:31;;;;;;;;;;;;;;;5.50;100.00;100709.72;5043074;28;19960;-52
2023/11/23 06:18:58;;;;;;;;;;;;;;;5.49;100.00;100685.38;5043841;28;19924;-55
2023/11/23 06:21:30;;;;;;;;;;;;;;;5.54;100.00;100712.16;5035376;28;19956;-55
2023/11/23 06:23:58;;;;;;;;;;;;;;;5.63;100.00;100700.53;5042457;28;21160;-57
2023/11/23 06:26:25;;;;;;;;;;;;;;;5.63;100.00;100712.72;5043848;28;19924;-55
2023/11/23 06:28:53;;;;;;;;;;;;;;;5.70;100.00;100675.00;5043912;28;20409;-58
2023/11/23 06:31:20;;;;;;;;;;;;;;;5.63;100.00;100681.38;5039494;28;20024;-52
2023/11/23 06:33:47;;;;;;;;;;;;;;;5.68;100.00;100682.91;5045413;28;20015;-55
2023/11/23 06:36:15;;;;;;;;;;;;;;;5.69;100.00;100687.22;5043911;28;20587;-54
2023/11/23 06:38:43;;;;;;;;;;;;;;;5.70;100.00;100665.41;5044594;28;19999;-57
2023/11/23 06:41:19;;;;;;;;;;;;;;;5.69;100.00;100679.41;5042934;28;20027;-52
2023/11/23 06:43:48;;;;;;;;;;;;;;;5.65;100.00;100706.53;5041778;28;19931;-57
2023/11/23 06:46:15;;;;;;;;;;;;;;;5.70;100.00;100680.25;5046674;28;19979;-58
2023/11/23 06:48:44;;;;;;;;;;;;;;;5.69;100.00;100662.88;5046451;28;19956;-58
2023/11/23 06:51:11;;;;;;;;;;;;;;;5.74;100.00;100661.78;5048309;28;19934;-56
2023/11/23 06:53:43;;;;;;;;;;;;;;;5.68;100.00;100659.41;5052187;28;20099;-52
2023/11/23 06:56:12;;;;;;;;;;;;;;;5.68;100.00;100666.41;5044346;28;20467;-58
2023/11/23 06:58:40;;;;;;;;;;;;;;;5.68;100.00;100656.81;5055444;28;19925;-56
2023/11/23 07:01:10;;;;;;;;;;;;;;;5.70;100.00;100654.13;5053309;28;19936;-54
2023/11/23 07:03:37;;;;;;;;;;;;;;;5.72;100.00;100639.22;5048915;28;20024;-54
2023/11/23 07:06:05;;;;;;;;;;;;;;;5.69;100.00;100639.38;5052931;28;20508;-55
2023/11/23 07:08:40;;;;;;;;;;;;;;;5.72;100.00;100642.72;5046528;28;20009;-52
2023/11/23 07:11:07;;;;;;;;;;;;;;;5.75;100.00;100624.28;5051449;28;19929;-54
2023/11/23 07:13:35;;;;;;;;;;;;;;;5.81;100.00;100633.69;5050574;28;19968;-58
2023/11/23 07:16:02;;;;;;;;;;;;;;;5.77;100.00;100616.41;5046698;28;19961;-57
2023/11/23 07:18:30;;;;;;;;;;;;;;;5.80;100.00;100624.97;5057351;28;19925;-58
2023/11/23 07:20:57;;;;;;;;;;;;;;;5.81;100.00;100599.72;5064870;28;19959;-58
2023/11/23 07:23:25;;;;;;;;;;;;;;;5.79;100.00;100611.97;5049109;28;19925;-57
2023/11/23 07:25:52;;;;;;;;;;;;;;;5.79;100.00;100611.97;5050030;28;20007;-56
2023/11/23 07:28:22;;;;;;;;;;;;;;;5.78;100.00;100592.84;5046651;28;19928;-53
2023/11/23 07:30:49;;;;;;;;;;;;;;;5.82;100.00;100604.03;5068709;28;22216;-55
2023/11/23 07:33:17;;;;;;;;;;;;;;;5.78;100.00;100592.00;5043771;28;20565;-57
2023/11/23 07:35:49;;;;;;;;;;;;;;;5.76;100.00;100568.56;5050500;28;19924;-52
2023/11/23 07:38:16;;;;;;;;;;;;;;;5.72;100.00;100589.59;5048359;28;20103;-52
2023/11/23 07:40:45;;;;;;;;;;;;;;;5.73;100.00;100589.56;5046484;28;19994;-56
2023/11/23 07:43:14;;;;;;;;;;;;;;;5.77;100.00;100572.00;5045094;28;20386;-54
2023/11/23 07:45:41;;;;;;;;;;;;;;;5.81;100.00;100560.53;5045573;28;19967;-56
2023/11/23 07:48:13;;;;;;;;;;;;;;;5.91;100.00;100566.22;5055565;28;20323;-56
2023/11/23 07:50:41;;;;;;;;;;;;;;;5.89;100.00;100568.03;5043195;28;19964;-51
2023/11/23 07:53:08;;;;;;;;;;;;;;;5.96;100.00;100556.47;5046770;28;19967;-55
2023/11/23 07:55:36;;;;;;;;;;;;;;;6.03;100.00;100563.13;5049245;28;20005;-56
2023/11/23 07:58:03;;;;;;;;;;;;;;;6.10;100.00;100559.34;5043921;28;20390;-56
2023/11/23 08:00:31;;;;;;;;;;;;;;;6.09;100.00;100562.91;5048792;28;20004;-59
2023/11/23 08:02:59;;;;;;;;;;;;;;;6.11;100.00;100550.59;5049835;28;20072;-53
2023/11/23 08:05:26;;;;;;;;;;;;;;;6.15;100.00;100543.50;5044568;28;19929;-58
2023/11/23 08:07:54;;;;;;;;;;;;;;;6.19;100.00;100545.06;5047909;28;20004;-55
2023/11/23 08:10:21;;;;;;;;;;;;;;;6.29;100.00;100547.22;5050816;28;20024;-53
2023/11/23 08:12:48;;;;;;;;;;;;;;;6.34;100.00;100562.69;5054379;28;19974;-57
2023/11/23 08:15:15;;;;;;;;;;;;;;;6.38;100.00;100525.06;5039584;28;20387;-57
2023/11/23 08:17:42;;;;;;;;;;;;;;;6.42;100.00;100528.41;5052865;28;19979;-58
2023/11/23 08:20:27;;;;;;;;;;;;;;;6.41;100.00;100551.06;5051783;28;19979;-53
2023/11/23 08:22:54;;;;;;;;;;;;;;;6.36;100.00;100552.19;5046418;28;19959;-52
2023/11/23 08:25:21;;;;;;;;;;;;;;;6.39;100.00;100547.66;5055122;28;19998;-54
2023/11/23 08:27:48;;;;;;;;;;;;;;;6.41;100.00;100522.31;5051004;28;20350;-52
2023/11/23 08:30:15;;;;;;;;;;;;;;;6.46;100.00;100537.81;5047241;28;19929;-59
2023/11/23 08:32:42;;;;;;;;;;;;;;;6.44;100.00;100505.63;5051895;28;19924;-52
2023/11/23 08:35:10;;;;;;;;;;;;;;;6.55;100.00;100498.16;5051586;28;20019;-58
2023/11/23 08:37:37;;;;;;;;;;;;;;;6.50;100.00;100494.91;5057359;28;19925;-57
2023/11/23 08:40:05;;;;;;;;;;;;;;;6.51;100.00;100494.00;5050928;28;19924;-53
2023/11/23 08:42:33;;;;;;;;;;;;;;;6.55;100.00;100487.72;5053845;28;20012;-54
2023/11/23 08:45:18;;;;;;;;;;;;;;;6.53;100.00;100518.34;5046823;28;19978;-57
2023/11/23 08:47:45;;;;;;;;;;;;;;;6.52;100.00;100480.84;5053495;28;20060;-57
2023/11/23 08:50:13;;;;;;;;;;;;;;;6.63;100.00;100472.53;5052560;28;19976;-57
2023/11/23 08:52:40;;;;;;;;;;;;;;;6.65;100.00;100493.38;5045853;28;19925;-57
2023/11/23 08:55:08;;;;;;;;;;;;;;;6.60;100.00;100497.03;5051451;28;20011;-56
2023/11/23 08:57:36;;;;;;;;;;;;;;;6.68;100.00;100481.03;5047728;28;19952;-57
2023/11/23 09:00:09;;;;;;;;;;;;;;;6.66;100.00;100475.00;5053024;28;20011;-58
2023/11/23 09:02:38;;;;;;;;;;;;;;;6.66;100.00;100467.13;5052845;28;20431;-57
2023/11/23 09:05:06;;;;;;;;;;;;;;;6.63;100.00;100461.22;5049972;28;20011;-55
2023/11/23 09:07:33;;;;;;;;;;;;;;;6.63;100.00;100459.44;5043095;28;20011;-56
2023/11/23 09:10:00;;;;;;;;;;;;;;;6.66;100.00;100451.44;5049549;28;20349;-54
2023/11/23 09:12:32;;;;;;;;;;;;;;;6.69;100.00;100458.31;5046725;28;20390;-56
2023/11/23 09:14:59;;;;;;;;;;;;;;;6.64;100.00;100449.84;5050363;28;20051;-54
2023/11/23 09:17:26;;;;;;;;;;;;;;;6.73;100.00;100462.50;5041312;28;19964;-57
2023/11/23 09:19:53;;;;;;;;;;;;;;;6.66;100.00;100464.53;5046950;28;19932;-54
2023/11/23 09:22:20;;;;;;;;;;;;;;;6.73;100.00;100447.66;5047368;28;20023;-57
2023/11/23 09:24:47;;;;;;;;;;;;;;;6.79;100.00;100456.97;5061473;28;20435;-57
2023/11/23 09:27:14;;;;;;;;;;;;;;;6.76;100.00;100462.38;5047645;28;20453;-57
2023/11/23 09:29:42;;;;;;;;;;;;;;;6.81;100.00;100410.66;5058436;28;19978;-54
2023/11/23 09:32:09;;;;;;;;;;;;;;;6.81;100.00;100416.75;5054373;28;20019;-55
2023/11/23 09:34:36;;;;;;;;;;;;;;;6.84;100.00;100415.75;5047250;28;20455;-57
2023/11/23 09:37:03;;;;;;;;;;;;;;;6.90;100.00;100432.94;5055877;28;19964;-54
2023/11/23 09:39:34;;;;;;;;;;;;;;;6.89;100.00;100428.59;5052394;28;20020;-54
2023/11/23 09:42:03;;;;;;;;;;;;;;;6.92;100.00;100425.84;5052285;28;19970;-53
2023/11/23 09:44:31;;;;;;;;;;;;;;;6.91;100.00;100401.47;5051287;28;20020;-52
2023/11/23 09:46:58;;;;;;;;;;;;;;;6.91;100.00;100398.84;5051198;28;19987;-56
2023/11/23 09:49:25;;;;;;;;;;;;;;;6.92;100.00;100408.38;5052768;28;19959;-54
2023/11/23 09:51:52;;;;;;;;;;;;;;;6.92;100.00;100389.22;5055622;28;19990;-55
2023/11/23 09:54:23;;;;;;;;;;;;;;;6.94;100.00;100372.53;5052404;28;19925;-56
2023/11/23 09:56:50;;;;;;;;;;;;;;;6.98;100.00;100355.78;5058203;28;19956;-55
2023/11/23 09:59:17;;;;;;;;;;;;;;;6.95;100.00;100400.41;5055013;28;20615;-56
2023/11/23 10:01:47;;;;;;;;;;;;;;;6.96;100.00;100380.31;5045686;28;19925;-55
2023/11/23 10:04:15;;;;;;;;;;;;;;;6.94;100.00;100358.59;5053285;28;19924;-59
2023/11/23 10:06:43;;;;;;;;;;;;;;;6.97;100.00;100366.28;5049588;28;19969;-57
2023/11/23 10:09:14;;;;;;;;;;;;;;;7.03;100.00;100359.00;5058794;28;19925;-55
2023/11/23 10:11:41;;;;;;;;;;;;;;;7.04;100.00;100368.56;5051462;28;20035;-55
2023/11/23 10:14:08;;;;;;;;;;;;;;;7.02;100.00;100353.81;5054840;28;19933;-55
2023/11/23 10:16:36;;;;;;;;;;;;;;;6.99;100.00;100343.53;5052646;28;20091;-56
2023/11/23 10:19:04;;;;;;;;;;;;;;;6.94;100.00;100372.53;5050854;28;19985;-56
2023/11/23 10:21:31;;;;;;;;;;;;;;;6.93;100.00;100339.41;5051579;28;19925;-57
2023/11/23 10:24:07;;;;;;;;;;;;;;;6.98;100.00;100315.63;5046851;28;19960;-54
2023/11/23 10:26:35;;;;;;;;;;;;;;;7.00;100.00;100325.13;5053655;28;19925;-56
2023/11/23 10:29:03;;;;;;;;;;;;;;;7.04;100.00;100308.34;5052230;28;20363;-57
2023/11/23 10:31:30;;;;;;;;;;;;;;;7.00;100.00;100321.66;5056722;28;20032;-56
2023/11/23 10:33:58;;;;;;;;;;;;;;;6.98;100.00;100292.09;5056761;28;19963;-59
2023/11/23 10:36:26;;;;;;;;;;;;;;;6.96;100.00;100301.78;5058547;28;19940;-58
2023/11/23 10:38:54;;;;;;;;;;;;;;;7.00;100.00;100283.25;5063749;28;19925;-56
2023/11/23 10:41:21;;;;;;;;;;;;;;;7.06;100.00;100275.09;5055677;28;20114;-58
2023/11/23 10:43:49;;;;;;;;;;;;;;;7.03;100.00;100269.19;5056378;28;19960;-57
2023/11/23 10:46:18;;;;;;;;;;;;;;;6.97;100.00;100280.78;5048359;28;19924;-56
2023/11/23 10:48:45;;;;;;;;;;;;;;;7.04;100.00;100263.84;5047779;28;19932;-56
2023/11/23 10:51:12;;;;;;;;;;;;;;;7.05;100.00;100247.22;5062576;28;19960;-55
2023/11/23 10:53:39;;;;;;;;;;;;;;;6.97;100.00;100252.00;5053586;28;19940;-57
2023/11/23 10:56:16;;;;;;;;;;;;;;;7.02;100.00;100242.13;5049979;28;20383;-54
2023/11/23 10:58:44;;;;;;;;;;;;;;;7.06;100.00;100241.06;5041417;28;19925;-56
2023/11/23 11:01:11;;;;;;;;;;;;;;;7.10;100.00;100239.13;5052922;28;20475;-55
2023/11/23 11:03:38;;;;;;;;;;;;;;;7.10;100.00;100242.59;5051539;28;19933;-57
2023/11/23 11:06:10;;;;;;;;;;;;;;;7.10;100.00;100236.53;5052518;28;21093;-54
2023/11/23 11:08:38;;;;;;;;;;;;;;;7.20;100.00;100248.22;5062831;28;19925;-55
2023/11/23 11:11:09;;;;;;;;;;;;;;;7.19;100.00;100229.97;5056394;28;19961;-58
2023/11/23 11:13:40;;;;;;;;;;;;;;;7.18;100.00;100233.53;5060367;28;20055;-55
2023/11/23 11:16:09;;;;;;;;;;;;;;;7.23;100.00;100234.97;5046378;28;19975;-55
2023/11/23 11:18:36;;;;;;;;;;;;;;;7.27;100.00;100222.56;5049521;28;19986;-57
2023/11/23 11:21:06;;;;;;;;;;;;;;;7.27;100.00;100239.13;5054777;28;20027;-55
2023/11/23 11:23:44;;;;;;;;;;;;;;;7.30;100.00;100235.53;5047746;28;19933;-57
2023/11/23 11:26:18;;;;;;;;;;;;;;;7.25;100.00;100232.25;5051098;28;19971;-52
2023/11/23 11:28:55;;;;;;;;;;;;;;;7.34;100.00;100209.09;5058721;28;19975;-57
2023/11/23 11:31:29;;;;;;;;;;;;;;;7.33;100.00;100203.91;5049806;28;20405;-56
2023/11/23 11:33:56;;;;;;;;;;;;;;;7.41;100.00;100196.50;5057459;28;20028;-53
2023/11/23 11:36:33;;;;;;;;;;;;;;;7.40;100.00;100194.81;5051361;28;19928;-54
2023/11/23 11:39:01;;;;;;;;;;;;;;;7.33;100.00;100170.72;5051955;28;20019;-56
2023/11/23 11:41:31;;;;;;;;;;;;;;;7.43;100.00;100171.09;5045352;28;20771;-57
2023/11/23 11:43:58;;;;;;;;;;;;;;;7.49;100.00;100176.00;5057350;28;20338;-57
2023/11/23 11:46:28;;;;;;;;;;;;;;;7.47;100.00;100183.09;5045626;28;19925;-57
2023/11/23 11:48:57;;;;;;;;;;;;;;;7.51;100.00;100183.78;5051163;28;19974;-56
2023/11/23 11:51:25;;;;;;;;;;;;;;;7.52;100.00;100180.22;5045282;28;19990;-57
2023/11/23 11:53:53;;;;;;;;;;;;;;;7.60;100.00;100165.78;5055295;28;19924;-55
2023/11/23 11:56:20;;;;;;;;;;;;;;;7.60;100.00;100146.59;5056113;28;19969;-57
2023/11/23 11:58:47;;;;;;;;;;;;;;;7.61;100.00;100143.09;5051515;28;19979;-55
2023/11/23 12:01:17;;;;;;;;;;;;;;;7.65;100.00;100118.38;5054270;28;20004;-55
2023/11/23 12:03:45;;;;;;;;;;;;;;;7.72;100.00;100124.97;5048110;28;19956;-56
2023/11/23 12:06:12;;;;;;;;;;;;;;;7.82;100.00;100120.06;5052707;28;20478;-57
2023/11/23 12:08:40;;;;;;;;;;;;;;;7.89;100.00;100113.56;5057692;28;19967;-53
2023/11/23 12:11:07;;;;;;;;;;;;;;;7.95;100.00;100109.75;5053114;28;20348;-55
2023/11/23 12:13:34;;;;;;;;;;;;;;;8.02;100.00;100106.72;5042430;28;19947;-57
2023/11/23 12:16:01;;;;;;;;;;;;;;;8.09;100.00;100112.44;5050324;28;19986;-57
2023/11/23 12:18:29;;;;;;;;;;;;;;;8.11;100.00;100111.44;5047024;28;20275;-54
2023/11/23 12:20:56;;;;;;;;;;;;;;;8.20;100.00;100119.72;5057349;28;19990;-55
2023/11/23 12:23:23;;;;;;;;;;;;;;;8.32;100.00;100130.31;5048939;28;20031;-55
2023/11/23 12:25:53;;;;;;;;;;;;;;;8.38;100.00;100105.56;5050207;28;19947;-54
2023/11/23 12:28:20;;;;;;;;;;;;;;;8.46;100.00;100095.44;5049028;28;20007;-55
2023/11/23 12:30:48;;;;;;;;;;;;;;;8.48;100.00;100096.22;5049059;28;19955;-50
2023/11/23 12:33:15;;;;;;;;;;;;;;;8.52;100.00;100110.84;5046391;28;20010;-53
2023/11/23 12:35:43;;;;;;;;;;;;;;;8.57;100.00;100092.22;5046823;28;20015;-58
2023/11/23 12:38:11;;;;;;;;;;;;;;;8.56;100.00;100085.28;5048087;28;19960;-55
2023/11/23 12:40:38;;;;;;;;;;;;;;;8.59;100.00;100085.09;5050565;28;20028;-56
2023/11/23 12:43:05;;;;;;;;;;;;;;;8.61;100.00;100076.19;5051469;28;19967;-57